sensor_id;sensor_type;location;lat;lon;timestamp;temperature;humidity
13328;DHT22;6733;51.044;3.746;2023-03-07T00:00:58;6.50;99.90
13328;DHT22;6733;51.044;3.746;2023-03-07T00:03:24;6.60;99.90
13328;DHT22;6733;51.044;3.746;2023-03-07T00:06:05;6.70;99.90
13328;DHT22;6733;51.044;3.746;2023-03-07T00:08:32;6.70;99.90
13328;DHT22;6733;51.044;3.746;2023-03-07T00:11:06;6.60;99.90
13328;DHT22;6733;51.044;3.746;2023-03-07T00:13:33;6.70;99.90
13328;DHT22;6733;51.044;3.746;2023-03-07T00:16:05;6.70;99.90
13328;DHT22;6733;51.044;3.746;2023-03-07T00:18:32;6.70;99.90
13328;DHT22;6733;51.044;3.746;2023-03-07T00:21:00;6.80;99.90
13328;DHT22;6733;51.044;3.746;2023-03-07T00:23:26;6.60;99.90
13328;DHT22;6733;51.044;3.746;2023-03-07T00:26:01;6.70;99.90
13328;DHT22;6733;51.044;3.746;2023-03-07T00:28:27;6.70;99.90
13328;DHT22;6733;51.044;3.746;2023-03-07T00:30:57;6.60;99.90
13328;DHT22;6733;51.044;3.746;2023-03-07T00:33:24;6.50;99.90
13328;DHT22;6733;51.044;3.746;2023-03-07T00:35:54;6.60;99.90
13328;DHT22;6733;51.044;3.746;2023-03-07T00:38:21;6.60;99.90
13328;DHT22;6733;51.044;3.746;2023-03-07T00:40:55;6.60;99.90
13328;DHT22;6733;51.044;3.746;2023-03-07T00:43:22;6.60;99.90
13328;DHT22;6733;51.044;3.746;2023-03-07T00:45:48;6.60;99.90
13328;DHT22;6733;51.044;3.746;2023-03-07T00:48:14;6.70;99.90
13328;DHT22;6733;51.044;3.746;2023-03-07T00:50:40;6.80;99.90
13328;DHT22;6733;51.044;3.746;2023-03-07T00:53:06;6.70;99.90
13328;DHT22;6733;51.044;3.746;2023-03-07T00:55:32;6.70;99.90
13328;DHT22;6733;51.044;3.746;2023-03-07T00:57:58;6.70;99.90
13328;DHT22;6733;51.044;3.746;2023-03-07T01:00:24;6.70;99.90
13328;DHT22;6733;51.044;3.746;2023-03-07T01:02:50;6.70;99.90
13328;DHT22;6733;51.044;3.746;2023-03-07T01:05:16;6.80;99.90
13328;DHT22;6733;51.044;3.746;2023-03-07T01:07:43;6.70;99.90
13328;DHT22;6733;51.044;3.746;2023-03-07T01:10:09;6.80;99.90
13328;DHT22;6733;51.044;3.746;2023-03-07T01:12:35;6.80;99.90
13328;DHT22;6733;51.044;3.746;2023-03-07T01:15:01;6.80;99.90
13328;DHT22;6733;51.044;3.746;2023-03-07T01:17:30;6.80;99.90
13328;DHT22;6733;51.044;3.746;2023-03-07T01:19:57;6.90;99.90
13328;DHT22;6733;51.044;3.746;2023-03-07T01:22:23;7.00;99.90
13328;DHT22;6733;51.044;3.746;2023-03-07T01:24:49;7.10;99.90
13328;DHT22;6733;51.044;3.746;2023-03-07T01:27:16;7.10;99.90
13328;DHT22;6733;51.044;3.746;2023-03-07T01:29:42;7.10;99.90
13328;DHT22;6733;51.044;3.746;2023-03-07T01:32:08;7.20;99.90
13328;DHT22;6733;51.044;3.746;2023-03-07T01:34:35;7.30;99.90
13328;DHT22;6733;51.044;3.746;2023-03-07T01:37:01;7.10;99.90
13328;DHT22;6733;51.044;3.746;2023-03-07T01:39:27;7.00;99.90
13328;DHT22;6733;51.044;3.746;2023-03-07T01:41:53;6.90;99.90
13328;DHT22;6733;51.044;3.746;2023-03-07T01:44:23;6.80;99.90
13328;DHT22;6733;51.044;3.746;2023-03-07T01:46:58;6.70;99.90
13328;DHT22;6733;51.044;3.746;2023-03-07T01:49:37;6.80;99.90
13328;DHT22;6733;51.044;3.746;2023-03-07T01:52:08;6.80;99.90
13328;DHT22;6733;51.044;3.746;2023-03-07T01:54:39;6.70;99.90
13328;DHT22;6733;51.044;3.746;2023-03-07T01:57:07;6.70;99.90
13328;DHT22;6733;51.044;3.746;2023-03-07T01:59:39;6.60;99.90
13328;DHT22;6733;51.044;3.746;2023-03-07T02:02:09;6.60;99.90
13328;DHT22;6733;51.044;3.746;2023-03-07T02:04:43;6.50;99.90
13328;DHT22;6733;51.044;3.746;2023-03-07T02:07:12;6.60;99.90
13328;DHT22;6733;51.044;3.746;2023-03-07T02:09:39;6.60;99.90
13328;DHT22;6733;51.044;3.746;2023-03-07T02:12:06;6.70;99.90
13328;DHT22;6733;51.044;3.746;2023-03-07T02:14:32;6.70;99.90
13328;DHT22;6733;51.044;3.746;2023-03-07T02:16:59;6.70;99.90
13328;DHT22;6733;51.044;3.746;2023-03-07T02:19:51;6.80;99.90
13328;DHT22;6733;51.044;3.746;2023-03-07T02:22:19;6.80;99.90
13328;DHT22;6733;51.044;3.746;2023-03-07T02:25:00;6.80;99.90
13328;DHT22;6733;51.044;3.746;2023-03-07T02:27:28;6.70;99.90
13328;DHT22;6733;51.044;3.746;2023-03-07T02:29:56;6.80;99.90
13328;DHT22;6733;51.044;3.746;2023-03-07T02:32:22;6.80;99.90
13328;DHT22;6733;51.044;3.746;2023-03-07T02:35:20;6.80;99.90
13328;DHT22;6733;51.044;3.746;2023-03-07T02:37:49;6.80;99.90
13328;DHT22;6733;51.044;3.746;2023-03-07T02:40:18;6.80;99.90
13328;DHT22;6733;51.044;3.746;2023-03-07T02:42:46;6.90;99.90
13328;DHT22;6733;51.044;3.746;2023-03-07T02:45:16;6.90;99.90
13328;DHT22;6733;51.044;3.746;2023-03-07T02:47:43;6.80;99.90
13328;DHT22;6733;51.044;3.746;2023-03-07T02:50:10;6.90;99.90
13328;DHT22;6733;51.044;3.746;2023-03-07T02:52:37;7.00;99.90
13328;DHT22;6733;51.044;3.746;2023-03-07T02:55:03;6.90;99.90
13328;DHT22;6733;51.044;3.746;2023-03-07T02:57:30;6.90;99.90
13328;DHT22;6733;51.044;3.746;2023-03-07T02:59:56;6.80;99.90
13328;DHT22;6733;51.044;3.746;2023-03-07T03:02:22;6.90;99.90
13328;DHT22;6733;51.044;3.746;2023-03-07T03:04:48;6.90;99.90
13328;DHT22;6733;51.044;3.746;2023-03-07T03:07:14;7.00;99.90
13328;DHT22;6733;51.044;3.746;2023-03-07T03:09:41;6.90;99.90
13328;DHT22;6733;51.044;3.746;2023-03-07T03:12:07;7.00;99.90
13328;DHT22;6733;51.044;3.746;2023-03-07T03:14:33;6.80;99.90
13328;DHT22;6733;51.044;3.746;2023-03-07T03:16:59;6.90;99.90
13328;DHT22;6733;51.044;3.746;2023-03-07T03:19:27;6.90;99.90
13328;DHT22;6733;51.044;3.746;2023-03-07T03:21:54;6.90;99.90
13328;DHT22;6733;51.044;3.746;2023-03-07T03:24:20;6.80;99.90
13328;DHT22;6733;51.044;3.746;2023-03-07T03:26:46;6.90;99.90
13328;DHT22;6733;51.044;3.746;2023-03-07T03:29:12;6.90;99.90
13328;DHT22;6733;51.044;3.746;2023-03-07T03:31:39;6.90;99.90
13328;DHT22;6733;51.044;3.746;2023-03-07T03:34:05;6.90;99.90
13328;DHT22;6733;51.044;3.746;2023-03-07T03:36:32;6.90;99.90
13328;DHT22;6733;51.044;3.746;2023-03-07T03:38:58;6.90;99.90
13328;DHT22;6733;51.044;3.746;2023-03-07T03:41:25;7.00;99.90
13328;DHT22;6733;51.044;3.746;2023-03-07T03:43:51;7.10;99.90
13328;DHT22;6733;51.044;3.746;2023-03-07T03:46:17;7.00;99.90
13328;DHT22;6733;51.044;3.746;2023-03-07T03:48:50;6.80;99.90
13328;DHT22;6733;51.044;3.746;2023-03-07T03:51:18;6.90;99.90
13328;DHT22;6733;51.044;3.746;2023-03-07T03:53:44;6.90;99.90
13328;DHT22;6733;51.044;3.746;2023-03-07T03:56:16;7.00;99.90
13328;DHT22;6733;51.044;3.746;2023-03-07T03:58:45;7.00;99.90
13328;DHT22;6733;51.044;3.746;2023-03-07T04:01:12;7.00;99.90
13328;DHT22;6733;51.044;3.746;2023-03-07T04:03:45;7.00;99.90
13328;DHT22;6733;51.044;3.746;2023-03-07T04:06:34;7.10;99.90
13328;DHT22;6733;51.044;3.746;2023-03-07T04:08:59;7.10;99.90
13328;DHT22;6733;51.044;3.746;2023-03-07T04:11:27;7.00;99.90
13328;DHT22;6733;51.044;3.746;2023-03-07T04:13:53;7.00;99.90
13328;DHT22;6733;51.044;3.746;2023-03-07T04:16:20;7.00;99.90
13328;DHT22;6733;51.044;3.746;2023-03-07T04:18:47;7.00;99.90
13328;DHT22;6733;51.044;3.746;2023-03-07T04:21:16;7.10;99.90
13328;DHT22;6733;51.044;3.746;2023-03-07T04:23:42;7.20;99.90
13328;DHT22;6733;51.044;3.746;2023-03-07T04:26:09;7.10;99.90
13328;DHT22;6733;51.044;3.746;2023-03-07T04:28:40;7.20;99.90
13328;DHT22;6733;51.044;3.746;2023-03-07T04:31:28;7.20;99.90
13328;DHT22;6733;51.044;3.746;2023-03-07T04:33:55;7.20;99.90
13328;DHT22;6733;51.044;3.746;2023-03-07T04:36:22;7.20;99.90
13328;DHT22;6733;51.044;3.746;2023-03-07T04:38:49;7.20;99.90
13328;DHT22;6733;51.044;3.746;2023-03-07T04:41:18;7.20;99.90
13328;DHT22;6733;51.044;3.746;2023-03-07T04:43:44;7.10;99.90
13328;DHT22;6733;51.044;3.746;2023-03-07T04:46:13;7.10;99.90
13328;DHT22;6733;51.044;3.746;2023-03-07T04:48:40;7.10;99.90
13328;DHT22;6733;51.044;3.746;2023-03-07T04:51:06;7.20;99.90
13328;DHT22;6733;51.044;3.746;2023-03-07T04:53:32;7.10;99.90
13328;DHT22;6733;51.044;3.746;2023-03-07T04:56:00;7.20;99.90
13328;DHT22;6733;51.044;3.746;2023-03-07T04:58:28;7.20;99.90
13328;DHT22;6733;51.044;3.746;2023-03-07T05:00:54;7.10;99.90
13328;DHT22;6733;51.044;3.746;2023-03-07T05:03:24;7.10;99.90
13328;DHT22;6733;51.044;3.746;2023-03-07T05:05:51;7.10;99.90
13328;DHT22;6733;51.044;3.746;2023-03-07T05:08:18;7.10;99.90
13328;DHT22;6733;51.044;3.746;2023-03-07T05:10:44;7.10;99.90
13328;DHT22;6733;51.044;3.746;2023-03-07T05:13:10;7.00;99.90
13328;DHT22;6733;51.044;3.746;2023-03-07T05:15:36;7.00;99.90
13328;DHT22;6733;51.044;3.746;2023-03-07T05:18:03;6.90;99.90
13328;DHT22;6733;51.044;3.746;2023-03-07T05:20:29;6.80;99.90
13328;DHT22;6733;51.044;3.746;2023-03-07T05:22:56;6.80;99.90
13328;DHT22;6733;51.044;3.746;2023-03-07T05:25:22;6.80;99.90
13328;DHT22;6733;51.044;3.746;2023-03-07T05:27:48;6.80;99.90
13328;DHT22;6733;51.044;3.746;2023-03-07T05:30:15;6.90;99.90
13328;DHT22;6733;51.044;3.746;2023-03-07T05:32:41;6.70;99.90
13328;DHT22;6733;51.044;3.746;2023-03-07T05:35:10;6.80;99.90
13328;DHT22;6733;51.044;3.746;2023-03-07T05:37:37;6.80;99.90
13328;DHT22;6733;51.044;3.746;2023-03-07T05:40:04;6.70;99.90
13328;DHT22;6733;51.044;3.746;2023-03-07T05:42:34;6.70;99.90
13328;DHT22;6733;51.044;3.746;2023-03-07T05:45:00;6.70;99.90
13328;DHT22;6733;51.044;3.746;2023-03-07T05:47:27;6.70;99.90
13328;DHT22;6733;51.044;3.746;2023-03-07T05:49:53;6.70;99.90
13328;DHT22;6733;51.044;3.746;2023-03-07T05:52:19;6.60;99.90
13328;DHT22;6733;51.044;3.746;2023-03-07T05:54:45;6.60;99.90
13328;DHT22;6733;51.044;3.746;2023-03-07T05:57:11;6.70;99.90
13328;DHT22;6733;51.044;3.746;2023-03-07T05:59:38;6.70;99.90
13328;DHT22;6733;51.044;3.746;2023-03-07T06:02:04;6.70;99.90
13328;DHT22;6733;51.044;3.746;2023-03-07T06:04:31;6.70;99.90
13328;DHT22;6733;51.044;3.746;2023-03-07T06:06:57;6.60;99.90
13328;DHT22;6733;51.044;3.746;2023-03-07T06:09:24;6.60;99.90
13328;DHT22;6733;51.044;3.746;2023-03-07T06:11:51;6.60;99.90
13328;DHT22;6733;51.044;3.746;2023-03-07T06:14:17;6.60;99.90
13328;DHT22;6733;51.044;3.746;2023-03-07T06:16:43;6.60;99.90
13328;DHT22;6733;51.044;3.746;2023-03-07T06:19:09;6.70;99.90
13328;DHT22;6733;51.044;3.746;2023-03-07T06:21:36;6.70;99.90
13328;DHT22;6733;51.044;3.746;2023-03-07T06:24:02;6.70;99.90
13328;DHT22;6733;51.044;3.746;2023-03-07T06:26:29;6.60;99.90
13328;DHT22;6733;51.044;3.746;2023-03-07T06:28:56;6.60;99.90
13328;DHT22;6733;51.044;3.746;2023-03-07T06:31:22;6.70;99.90
13328;DHT22;6733;51.044;3.746;2023-03-07T06:33:50;6.60;99.90
13328;DHT22;6733;51.044;3.746;2023-03-07T06:36:17;6.60;99.90
13328;DHT22;6733;51.044;3.746;2023-03-07T06:38:44;6.70;99.90
13328;DHT22;6733;51.044;3.746;2023-03-07T06:41:10;6.70;99.90
13328;DHT22;6733;51.044;3.746;2023-03-07T06:43:36;6.70;99.90
13328;DHT22;6733;51.044;3.746;2023-03-07T06:46:03;6.70;99.90
13328;DHT22;6733;51.044;3.746;2023-03-07T06:48:30;6.70;99.90
13328;DHT22;6733;51.044;3.746;2023-03-07T06:50:56;6.80;99.90
13328;DHT22;6733;51.044;3.746;2023-03-07T06:53:22;6.80;99.90
13328;DHT22;6733;51.044;3.746;2023-03-07T06:55:49;6.80;99.90
13328;DHT22;6733;51.044;3.746;2023-03-07T06:58:16;6.90;99.90
13328;DHT22;6733;51.044;3.746;2023-03-07T07:00:42;6.90;99.90
13328;DHT22;6733;51.044;3.746;2023-03-07T07:03:12;6.90;99.90
13328;DHT22;6733;51.044;3.746;2023-03-07T07:05:38;6.90;99.90
13328;DHT22;6733;51.044;3.746;2023-03-07T07:08:05;7.00;99.90
13328;DHT22;6733;51.044;3.746;2023-03-07T07:10:31;7.00;99.90
13328;DHT22;6733;51.044;3.746;2023-03-07T07:12:57;6.90;99.90
13328;DHT22;6733;51.044;3.746;2023-03-07T07:15:24;7.00;99.90
13328;DHT22;6733;51.044;3.746;2023-03-07T07:17:51;6.90;99.90
13328;DHT22;6733;51.044;3.746;2023-03-07T07:20:17;6.90;99.90
13328;DHT22;6733;51.044;3.746;2023-03-07T07:22:43;7.00;99.90
13328;DHT22;6733;51.044;3.746;2023-03-07T07:25:10;7.00;99.90
13328;DHT22;6733;51.044;3.746;2023-03-07T07:27:36;7.00;99.90
13328;DHT22;6733;51.044;3.746;2023-03-07T07:30:03;7.00;99.90
13328;DHT22;6733;51.044;3.746;2023-03-07T07:32:30;7.00;99.90
13328;DHT22;6733;51.044;3.746;2023-03-07T07:34:56;7.00;99.90
13328;DHT22;6733;51.044;3.746;2023-03-07T07:37:22;7.00;99.90
13328;DHT22;6733;51.044;3.746;2023-03-07T07:39:49;7.00;99.90
13328;DHT22;6733;51.044;3.746;2023-03-07T07:42:16;7.10;99.90
13328;DHT22;6733;51.044;3.746;2023-03-07T07:44:42;7.20;99.90
13328;DHT22;6733;51.044;3.746;2023-03-07T07:47:08;7.30;99.90
13328;DHT22;6733;51.044;3.746;2023-03-07T07:49:35;7.20;99.90
13328;DHT22;6733;51.044;3.746;2023-03-07T07:52:01;7.10;99.90
13328;DHT22;6733;51.044;3.746;2023-03-07T07:54:27;7.00;99.90
13328;DHT22;6733;51.044;3.746;2023-03-07T07:56:53;7.00;99.90
13328;DHT22;6733;51.044;3.746;2023-03-07T07:59:20;7.10;99.90
13328;DHT22;6733;51.044;3.746;2023-03-07T08:01:46;7.10;99.90
13328;DHT22;6733;51.044;3.746;2023-03-07T08:04:12;6.60;99.90
13328;DHT22;6733;51.044;3.746;2023-03-07T08:06:38;6.40;99.90
13328;DHT22;6733;51.044;3.746;2023-03-07T08:09:04;6.20;99.90
13328;DHT22;6733;51.044;3.746;2023-03-07T08:11:30;6.20;99.90
13328;DHT22;6733;51.044;3.746;2023-03-07T08:13:57;6.10;99.90
13328;DHT22;6733;51.044;3.746;2023-03-07T08:16:23;6.20;99.90
13328;DHT22;6733;51.044;3.746;2023-03-07T08:18:51;6.10;99.90
13328;DHT22;6733;51.044;3.746;2023-03-07T08:21:18;6.10;99.90
13328;DHT22;6733;51.044;3.746;2023-03-07T08:23:44;6.10;99.90
13328;DHT22;6733;51.044;3.746;2023-03-07T08:26:11;6.10;99.90
13328;DHT22;6733;51.044;3.746;2023-03-07T08:28:39;6.00;99.90
13328;DHT22;6733;51.044;3.746;2023-03-07T08:31:14;6.00;99.90
13328;DHT22;6733;51.044;3.746;2023-03-07T08:33:41;6.00;99.90
13328;DHT22;6733;51.044;3.746;2023-03-07T08:36:07;6.00;99.90
13328;DHT22;6733;51.044;3.746;2023-03-07T08:38:34;6.00;99.90
13328;DHT22;6733;51.044;3.746;2023-03-07T08:41:01;6.00;99.90
13328;DHT22;6733;51.044;3.746;2023-03-07T08:43:30;6.00;99.90
13328;DHT22;6733;51.044;3.746;2023-03-07T08:45:57;5.90;99.90
13328;DHT22;6733;51.044;3.746;2023-03-07T08:48:24;5.90;99.90
13328;DHT22;6733;51.044;3.746;2023-03-07T08:50:51;6.00;99.90
13328;DHT22;6733;51.044;3.746;2023-03-07T08:53:17;6.00;99.90
13328;DHT22;6733;51.044;3.746;2023-03-07T08:55:43;6.00;99.90
13328;DHT22;6733;51.044;3.746;2023-03-07T08:58:10;6.00;99.90
13328;DHT22;6733;51.044;3.746;2023-03-07T09:00:37;5.60;99.90
13328;DHT22;6733;51.044;3.746;2023-03-07T09:03:04;5.60;99.90
13328;DHT22;6733;51.044;3.746;2023-03-07T09:05:31;5.60;99.90
13328;DHT22;6733;51.044;3.746;2023-03-07T09:07:57;5.50;99.90
13328;DHT22;6733;51.044;3.746;2023-03-07T09:10:24;5.60;99.90
13328;DHT22;6733;51.044;3.746;2023-03-07T09:12:52;5.50;99.90
13328;DHT22;6733;51.044;3.746;2023-03-07T09:15:20;5.60;99.90
13328;DHT22;6733;51.044;3.746;2023-03-07T09:17:47;5.60;99.90
13328;DHT22;6733;51.044;3.746;2023-03-07T09:20:13;5.40;99.90
13328;DHT22;6733;51.044;3.746;2023-03-07T09:22:44;5.60;99.90
13328;DHT22;6733;51.044;3.746;2023-03-07T09:25:11;5.60;99.90
13328;DHT22;6733;51.044;3.746;2023-03-07T09:27:38;5.70;99.90
13328;DHT22;6733;51.044;3.746;2023-03-07T09:30:04;5.70;99.90
13328;DHT22;6733;51.044;3.746;2023-03-07T09:32:31;5.70;99.90
13328;DHT22;6733;51.044;3.746;2023-03-07T09:34:58;5.70;99.90
13328;DHT22;6733;51.044;3.746;2023-03-07T09:37:24;5.80;99.90
13328;DHT22;6733;51.044;3.746;2023-03-07T09:39:50;5.80;99.90
13328;DHT22;6733;51.044;3.746;2023-03-07T09:42:36;5.80;99.90
13328;DHT22;6733;51.044;3.746;2023-03-07T09:50:36;5.60;99.90
13328;DHT22;6733;51.044;3.746;2023-03-07T09:53:04;5.60;99.90
13328;DHT22;6733;51.044;3.746;2023-03-07T09:55:31;5.60;99.90
13328;DHT22;6733;51.044;3.746;2023-03-07T09:58:00;5.50;99.90
13328;DHT22;6733;51.044;3.746;2023-03-07T10:00:37;5.60;99.90
13328;DHT22;6733;51.044;3.746;2023-03-07T10:05:51;5.80;99.90
13328;DHT22;6733;51.044;3.746;2023-03-07T10:08:21;5.80;99.90
13328;DHT22;6733;51.044;3.746;2023-03-07T10:11:16;5.90;99.90
13328;DHT22;6733;51.044;3.746;2023-03-07T10:16:35;5.80;99.90
13328;DHT22;6733;51.044;3.746;2023-03-07T10:24:37;5.70;99.90
13328;DHT22;6733;51.044;3.746;2023-03-07T10:27:10;5.50;99.90
13328;DHT22;6733;51.044;3.746;2023-03-07T10:29:45;5.40;99.90
13328;DHT22;6733;51.044;3.746;2023-03-07T10:37:41;5.70;99.90
13328;DHT22;6733;51.044;3.746;2023-03-07T10:42:44;5.60;99.90
13328;DHT22;6733;51.044;3.746;2023-03-07T10:45:13;5.60;99.90
13328;DHT22;6733;51.044;3.746;2023-03-07T10:47:40;5.70;99.90
13328;DHT22;6733;51.044;3.746;2023-03-07T10:50:23;5.70;99.90
13328;DHT22;6733;51.044;3.746;2023-03-07T10:52:54;5.60;99.90
13328;DHT22;6733;51.044;3.746;2023-03-07T10:55:38;5.50;99.90
13328;DHT22;6733;51.044;3.746;2023-03-07T10:58:15;5.60;99.90
13328;DHT22;6733;51.044;3.746;2023-03-07T11:00:43;5.70;99.90
13328;DHT22;6733;51.044;3.746;2023-03-07T11:03:40;5.70;99.90
13328;DHT22;6733;51.044;3.746;2023-03-07T11:08:54;5.80;99.90
13328;DHT22;6733;51.044;3.746;2023-03-07T11:11:25;6.00;99.90
13328;DHT22;6733;51.044;3.746;2023-03-07T11:14:04;5.80;99.90
13328;DHT22;6733;51.044;3.746;2023-03-07T11:16:31;5.90;99.90
13328;DHT22;6733;51.044;3.746;2023-03-07T11:18:57;6.00;99.90
13328;DHT22;6733;51.044;3.746;2023-03-07T11:21:34;6.10;99.90
13328;DHT22;6733;51.044;3.746;2023-03-07T11:24:28;6.00;99.90
13328;DHT22;6733;51.044;3.746;2023-03-07T11:26:56;6.20;99.90
13328;DHT22;6733;51.044;3.746;2023-03-07T11:29:22;6.30;99.90
13328;DHT22;6733;51.044;3.746;2023-03-07T11:34:23;6.60;99.90
13328;DHT22;6733;51.044;3.746;2023-03-07T11:37:18;6.60;99.90
13328;DHT22;6733;51.044;3.746;2023-03-07T11:42:57;6.70;99.90
13328;DHT22;6733;51.044;3.746;2023-03-07T11:50:55;6.40;99.90
13328;DHT22;6733;51.044;3.746;2023-03-07T11:56:34;6.60;99.90
13328;DHT22;6733;51.044;3.746;2023-03-07T12:01:58;6.70;99.90
13328;DHT22;6733;51.044;3.746;2023-03-07T12:10:22;6.50;99.90
13328;DHT22;6733;51.044;3.746;2023-03-07T12:18:39;6.40;99.90
13328;DHT22;6733;51.044;3.746;2023-03-07T12:21:30;6.30;99.90
13328;DHT22;6733;51.044;3.746;2023-03-07T12:24:22;6.40;99.90
13328;DHT22;6733;51.044;3.746;2023-03-07T12:26:53;6.30;99.90
13328;DHT22;6733;51.044;3.746;2023-03-07T12:31:58;6.40;99.90
13328;DHT22;6733;51.044;3.746;2023-03-07T12:34:38;6.40;99.90
13328;DHT22;6733;51.044;3.746;2023-03-07T12:37:15;6.40;99.90
13328;DHT22;6733;51.044;3.746;2023-03-07T12:39:52;6.50;99.90
13328;DHT22;6733;51.044;3.746;2023-03-07T12:42:42;6.50;99.90
13328;DHT22;6733;51.044;3.746;2023-03-07T12:45:10;6.40;99.90
13328;DHT22;6733;51.044;3.746;2023-03-07T12:50:29;6.40;99.90
13328;DHT22;6733;51.044;3.746;2023-03-07T12:52:59;6.30;99.90
13328;DHT22;6733;51.044;3.746;2023-03-07T12:55:44;6.30;99.90
13328;DHT22;6733;51.044;3.746;2023-03-07T12:58:36;6.40;99.90
13328;DHT22;6733;51.044;3.746;2023-03-07T13:01:20;6.50;99.90
13328;DHT22;6733;51.044;3.746;2023-03-07T13:04:12;6.30;99.90
13328;DHT22;6733;51.044;3.746;2023-03-07T13:06:41;6.20;99.90
13328;DHT22;6733;51.044;3.746;2023-03-07T13:09:19;6.10;99.90
13328;DHT22;6733;51.044;3.746;2023-03-07T13:14:50;6.40;99.90
13328;DHT22;6733;51.044;3.746;2023-03-07T13:20:09;6.50;99.90
13328;DHT22;6733;51.044;3.746;2023-03-07T13:48:58;5.30;99.90
13328;DHT22;6733;51.044;3.746;2023-03-07T13:51:24;5.50;99.90
13328;DHT22;6733;51.044;3.746;2023-03-07T13:53:59;5.40;99.90
13328;DHT22;6733;51.044;3.746;2023-03-07T13:56:28;5.50;99.90
13328;DHT22;6733;51.044;3.746;2023-03-07T13:59:01;5.40;99.90
13328;DHT22;6733;51.044;3.746;2023-03-07T14:06:44;5.30;99.90
13328;DHT22;6733;51.044;3.746;2023-03-07T14:09:18;5.20;99.90
13328;DHT22;6733;51.044;3.746;2023-03-07T14:17:09;5.40;99.90
13328;DHT22;6733;51.044;3.746;2023-03-07T14:20:07;5.30;99.90
13328;DHT22;6733;51.044;3.746;2023-03-07T14:25:37;5.40;99.90
13328;DHT22;6733;51.044;3.746;2023-03-07T14:28:25;5.50;99.90
13328;DHT22;6733;51.044;3.746;2023-03-07T14:31:02;5.50;99.90
13328;DHT22;6733;51.044;3.746;2023-03-07T14:33:35;5.50;99.90
13328;DHT22;6733;51.044;3.746;2023-03-07T14:36:22;5.60;99.90
13328;DHT22;6733;51.044;3.746;2023-03-07T14:38:53;5.40;99.90
13328;DHT22;6733;51.044;3.746;2023-03-07T14:47:16;5.30;99.90
13328;DHT22;6733;51.044;3.746;2023-03-07T14:50:08;4.90;99.90
13328;DHT22;6733;51.044;3.746;2023-03-07T14:52:35;4.90;99.90
13328;DHT22;6733;51.044;3.746;2023-03-07T14:55:03;5.00;99.90
13328;DHT22;6733;51.044;3.746;2023-03-07T14:57:36;4.90;99.90
13328;DHT22;6733;51.044;3.746;2023-03-07T15:00:20;5.00;99.90
13328;DHT22;6733;51.044;3.746;2023-03-07T15:02:58;5.00;99.90
13328;DHT22;6733;51.044;3.746;2023-03-07T15:05:34;5.00;99.90
13328;DHT22;6733;51.044;3.746;2023-03-07T15:08:01;5.00;99.90
13328;DHT22;6733;51.044;3.746;2023-03-07T15:10:40;5.10;99.90
13328;DHT22;6733;51.044;3.746;2023-03-07T15:13:13;5.00;99.90
13328;DHT22;6733;51.044;3.746;2023-03-07T15:15:46;4.80;99.90
13328;DHT22;6733;51.044;3.746;2023-03-07T15:18:35;4.80;99.90
13328;DHT22;6733;51.044;3.746;2023-03-07T15:21:03;4.60;99.90
13328;DHT22;6733;51.044;3.746;2023-03-07T15:23:31;4.70;99.90
13328;DHT22;6733;51.044;3.746;2023-03-07T15:26:03;4.80;99.90
13328;DHT22;6733;51.044;3.746;2023-03-07T15:28:37;4.90;99.90
13328;DHT22;6733;51.044;3.746;2023-03-07T15:31:05;4.90;99.90
13328;DHT22;6733;51.044;3.746;2023-03-07T15:33:34;4.80;99.90
13328;DHT22;6733;51.044;3.746;2023-03-07T15:36:14;4.80;99.90
13328;DHT22;6733;51.044;3.746;2023-03-07T15:38:44;4.60;99.90
13328;DHT22;6733;51.044;3.746;2023-03-07T15:41:34;4.70;99.90
13328;DHT22;6733;51.044;3.746;2023-03-07T15:46:41;4.40;99.90
13328;DHT22;6733;51.044;3.746;2023-03-07T15:49:18;4.30;99.90
13328;DHT22;6733;51.044;3.746;2023-03-07T15:51:45;4.40;99.90
13328;DHT22;6733;51.044;3.746;2023-03-07T15:54:39;4.20;99.90
13328;DHT22;6733;51.044;3.746;2023-03-07T15:57:27;4.30;99.90
13328;DHT22;6733;51.044;3.746;2023-03-07T16:00:02;4.10;99.90
13328;DHT22;6733;51.044;3.746;2023-03-07T16:02:39;4.10;99.90
13328;DHT22;6733;51.044;3.746;2023-03-07T16:07:44;4.10;99.90
13328;DHT22;6733;51.044;3.746;2023-03-07T16:10:10;4.10;99.90
13328;DHT22;6733;51.044;3.746;2023-03-07T16:12:38;4.10;99.90
13328;DHT22;6733;51.044;3.746;2023-03-07T16:15:15;4.10;99.90
13328;DHT22;6733;51.044;3.746;2023-03-07T16:17:42;4.10;99.90
13328;DHT22;6733;51.044;3.746;2023-03-07T16:20:16;4.20;99.90
13328;DHT22;6733;51.044;3.746;2023-03-07T16:22:43;4.20;99.90
13328;DHT22;6733;51.044;3.746;2023-03-07T16:25:12;4.20;99.90
13328;DHT22;6733;51.044;3.746;2023-03-07T16:27:38;4.30;99.90
13328;DHT22;6733;51.044;3.746;2023-03-07T16:30:13;4.10;99.90
13328;DHT22;6733;51.044;3.746;2023-03-07T16:32:40;3.90;99.90
13328;DHT22;6733;51.044;3.746;2023-03-07T16:37:40;4.00;99.90
13328;DHT22;6733;51.044;3.746;2023-03-07T16:40:07;4.10;99.90
13328;DHT22;6733;51.044;3.746;2023-03-07T16:42:33;4.10;99.90
13328;DHT22;6733;51.044;3.746;2023-03-07T16:45:00;4.30;99.90
13328;DHT22;6733;51.044;3.746;2023-03-07T16:47:26;4.20;99.90
13328;DHT22;6733;51.044;3.746;2023-03-07T16:49:52;4.30;99.90
13328;DHT22;6733;51.044;3.746;2023-03-07T16:52:18;4.20;99.90
13328;DHT22;6733;51.044;3.746;2023-03-07T16:54:48;4.00;99.90
13328;DHT22;6733;51.044;3.746;2023-03-07T16:57:15;4.00;99.90
13328;DHT22;6733;51.044;3.746;2023-03-07T16:59:45;4.10;99.90
13328;DHT22;6733;51.044;3.746;2023-03-07T17:02:15;4.00;99.90
13328;DHT22;6733;51.044;3.746;2023-03-07T17:04:42;3.90;99.90
13328;DHT22;6733;51.044;3.746;2023-03-07T17:07:19;3.90;99.90
13328;DHT22;6733;51.044;3.746;2023-03-07T17:09:47;4.00;99.90
13328;DHT22;6733;51.044;3.746;2023-03-07T17:12:14;3.80;99.90
13328;DHT22;6733;51.044;3.746;2023-03-07T17:14:41;3.90;99.90
13328;DHT22;6733;51.044;3.746;2023-03-07T17:17:24;3.80;99.90
13328;DHT22;6733;51.044;3.746;2023-03-07T17:19:52;4.00;99.90
13328;DHT22;6733;51.044;3.746;2023-03-07T17:22:18;3.70;99.90
13328;DHT22;6733;51.044;3.746;2023-03-07T17:24:44;3.70;99.90
13328;DHT22;6733;51.044;3.746;2023-03-07T17:27:10;3.80;99.90
13328;DHT22;6733;51.044;3.746;2023-03-07T17:29:46;3.90;99.90
13328;DHT22;6733;51.044;3.746;2023-03-07T17:32:15;4.00;99.90
13328;DHT22;6733;51.044;3.746;2023-03-07T17:34:41;4.00;99.90
13328;DHT22;6733;51.044;3.746;2023-03-07T17:37:09;3.90;99.90
13328;DHT22;6733;51.044;3.746;2023-03-07T17:39:35;3.90;99.90
13328;DHT22;6733;51.044;3.746;2023-03-07T17:42:02;3.90;99.90
13328;DHT22;6733;51.044;3.746;2023-03-07T17:44:29;3.90;99.90
13328;DHT22;6733;51.044;3.746;2023-03-07T17:46:56;3.90;99.90
13328;DHT22;6733;51.044;3.746;2023-03-07T17:49:22;4.00;99.90
13328;DHT22;6733;51.044;3.746;2023-03-07T17:51:49;3.80;99.90
13328;DHT22;6733;51.044;3.746;2023-03-07T17:54:15;3.80;99.90
13328;DHT22;6733;51.044;3.746;2023-03-07T17:56:41;3.90;99.90
13328;DHT22;6733;51.044;3.746;2023-03-07T17:59:08;4.00;99.90
13328;DHT22;6733;51.044;3.746;2023-03-07T18:01:34;3.80;99.90
13328;DHT22;6733;51.044;3.746;2023-03-07T18:04:02;4.10;99.90
13328;DHT22;6733;51.044;3.746;2023-03-07T18:06:28;4.30;99.90
13328;DHT22;6733;51.044;3.746;2023-03-07T18:08:54;4.40;99.90
13328;DHT22;6733;51.044;3.746;2023-03-07T18:11:21;4.60;99.90
13328;DHT22;6733;51.044;3.746;2023-03-07T18:13:47;4.60;99.90
13328;DHT22;6733;51.044;3.746;2023-03-07T18:16:13;4.70;99.90
13328;DHT22;6733;51.044;3.746;2023-03-07T18:18:40;4.80;99.90